Time;durP1;ratioP1;P1;durP2;ratioP2;P2;SDS_P1;SDS_P2;PMS_P1;PMS_P2;Temp;Humidity;BMP_temperature;BMP_pressure;BME280_temperature;BME280_humidity;BME280_pressure;Samples;Min_cycle;Max_cycle;Signal;HPM_P1;HPM_P2
2021/12/26 00:01:41;;;;;;;1999.90;999.90;;;;;;;;;;5010743;28;20044;-79
2021/12/26 00:04:07;;;;;;;1999.90;999.90;;;;;;;;;;4977837;28;20038;-78
2021/12/26 00:06:33;;;;;;;1999.90;999.90;;;;;;;;;;4994734;28;20116;-79
2021/12/26 00:08:59;;;;;;;1999.90;999.90;;;;;;;;;;4994894;28;20088;-78
2021/12/26 00:11:24;;;;;;;1999.90;999.90;;;;;;;;;;4978143;28;20037;-78
2021/12/26 00:13:50;;;;;;;1192.60;522.83;;;;;;;;;;4978496;28;20392;-78
2021/12/26 00:16:17;;;;;;;1999.90;999.90;;;;;;;;;;4977995;28;20095;-78
2021/12/26 00:18:45;;;;;;;1999.90;999.90;;;;;;;;;;4991101;28;20033;-78
2021/12/26 00:21:11;;;;;;;1999.90;999.90;;;;;;;;;;4959454;28;20049;-78
2021/12/26 00:23:36;;;;;;;1999.90;999.90;;;;;;;;;;4975294;28;20045;-78
2021/12/26 00:26:02;;;;;;;1999.90;999.90;;;;;;;;;;4963055;28;20034;-78
2021/12/26 00:28:28;;;;;;;1999.90;999.90;;;;;;;;;;4994600;28;20072;-78
2021/12/26 00:30:53;;;;;;;1999.90;999.90;;;;;;;;;;4994083;28;20045;-78
2021/12/26 00:33:19;;;;;;;1537.13;753.28;;;;;;;;;;4992990;28;20099;-78
2021/12/26 00:35:44;;;;;;;1243.05;533.25;;;;;;;;;;4978165;28;20053;-78
2021/12/26 00:38:10;;;;;;;1999.90;999.90;;;;;;;;;;4978010;28;20487;-78
2021/12/26 00:40:35;;;;;;;1999.90;999.90;;;;;;;;;;4994518;28;20042;-78
2021/12/26 00:43:01;;;;;;;1999.90;999.90;;;;;;;;;;4977872;28;20053;-79
2021/12/26 00:45:26;;;;;;;1999.90;999.90;;;;;;;;;;4994278;28;20034;-78
2021/12/26 00:47:52;;;;;;;1999.90;999.90;;;;;;;;;;4993879;28;20026;-78
2021/12/26 00:50:20;;;;;;;1999.90;999.90;;;;;;;;;;4977930;28;20038;-78
2021/12/26 00:52:46;;;;;;;1999.90;999.90;;;;;;;;;;4994475;28;20040;-78
2021/12/26 00:55:12;;;;;;;1999.90;999.90;;;;;;;;;;4994346;28;20045;-79
2021/12/26 00:57:37;;;;;;;1999.90;999.90;;;;;;;;;;4994445;28;20089;-78
2021/12/26 01:00:13;;;;;;;1999.90;999.90;;;;;;;;;;4977954;28;20116;-78
2021/12/26 01:02:38;;;;;;;1999.90;999.90;;;;;;;;;;4978056;28;20595;-78
2021/12/26 01:05:06;;;;;;;1999.90;999.90;;;;;;;;;;4994166;28;20120;-78
2021/12/26 01:10:31;;;;;;;1999.90;999.90;;;;;;;;;;4980906;28;20400;-78
2021/12/26 01:12:56;;;;;;;1999.90;999.90;;;;;;;;;;4994667;28;20176;-78
2021/12/26 01:15:23;;;;;;;1999.90;999.90;;;;;;;;;;4977345;28;20130;-78
2021/12/26 01:17:55;;;;;;;1999.90;999.90;;;;;;;;;;4990177;28;20393;-78
2021/12/26 01:20:38;;;;;;;1999.90;999.90;;;;;;;;;;4975589;28;20038;-79
2021/12/26 01:23:04;;;;;;;1999.90;999.90;;;;;;;;;;4975549;28;20041;-78
2021/12/26 01:25:29;;;;;;;1999.90;999.90;;;;;;;;;;4993886;28;20033;-78
2021/12/26 01:27:55;;;;;;;1999.90;999.90;;;;;;;;;;4977508;28;20041;-78
2021/12/26 01:30:20;;;;;;;1999.90;999.90;;;;;;;;;;4977938;28;20038;-78
2021/12/26 01:32:45;;;;;;;1999.90;999.90;;;;;;;;;;4993569;28;20056;-78
2021/12/26 01:35:11;;;;;;;1999.90;999.90;;;;;;;;;;4994477;28;20034;-78
2021/12/26 01:37:36;;;;;;;1999.90;999.90;;;;;;;;;;4977170;28;20041;-78
2021/12/26 01:40:03;;;;;;;1999.90;999.90;;;;;;;;;;4993419;28;20030;-78
2021/12/26 01:42:29;;;;;;;1305.68;531.45;;;;;;;;;;4994047;28;20088;-78
2021/12/26 01:44:54;;;;;;;1999.90;999.90;;;;;;;;;;4997270;28;20030;-78
2021/12/26 01:47:20;;;;;;;1999.90;999.90;;;;;;;;;;4996804;28;20439;-78
2021/12/26 01:49:45;;;;;;;1554.75;754.00;;;;;;;;;;4997071;28;20381;-78
2021/12/26 01:52:11;;;;;;;1999.90;999.90;;;;;;;;;;4980568;28;20080;-78
2021/12/26 01:54:43;;;;;;;1999.90;999.90;;;;;;;;;;4997115;28;20088;-77
2021/12/26 01:57:10;;;;;;;1999.90;999.90;;;;;;;;;;4982274;28;20034;-78
2021/12/26 01:59:35;;;;;;;1999.90;999.90;;;;;;;;;;4981020;28;20432;-78
2021/12/26 02:02:01;;;;;;;1613.40;767.05;;;;;;;;;;4996970;28;20044;-77
2021/12/26 02:04:28;;;;;;;1999.90;999.90;;;;;;;;;;4996882;28;20113;-78
2021/12/26 02:06:57;;;;;;;1999.90;999.90;;;;;;;;;;4964857;28;20030;-78
2021/12/26 02:09:23;;;;;;;1999.90;999.90;;;;;;;;;;4963238;28;20037;-78
2021/12/26 02:11:48;;;;;;;1999.90;999.90;;;;;;;;;;4996821;28;20384;-78
2021/12/26 02:14:14;;;;;;;1999.90;999.90;;;;;;;;;;4980424;28;20030;-78
2021/12/26 02:16:39;;;;;;;1999.90;999.90;;;;;;;;;;4980158;28;20084;-78
2021/12/26 02:19:04;;;;;;;1999.90;999.90;;;;;;;;;;4976947;28;20042;-78
2021/12/26 02:29:26;;;;;;;1999.90;999.90;;;;;;;;;;5012893;28;20033;-77
2021/12/26 02:31:52;;;;;;;1999.90;999.90;;;;;;;;;;4980332;28;20038;-77
2021/12/26 02:34:17;;;;;;;1999.90;999.90;;;;;;;;;;5012630;28;20097;-77
2021/12/26 02:36:43;;;;;;;1999.90;999.90;;;;;;;;;;4980088;28;20377;-77
2021/12/26 02:39:08;;;;;;;1999.90;999.90;;;;;;;;;;4979944;28;20038;-77
2021/12/26 02:41:34;;;;;;;1999.90;999.90;;;;;;;;;;4995619;28;20464;-78
2021/12/26 02:43:59;;;;;;;1999.90;999.90;;;;;;;;;;4992891;28;20571;-78
2021/12/26 02:46:26;;;;;;;1999.90;999.90;;;;;;;;;;4976269;28;20049;-78
2021/12/26 02:48:52;;;;;;;1999.90;999.90;;;;;;;;;;4976824;28;20030;-79
2021/12/26 02:51:17;;;;;;;1999.90;999.90;;;;;;;;;;4979431;28;20069;-78
2021/12/26 02:53:45;;;;;;;1999.90;999.90;;;;;;;;;;4979565;28;20468;-77
2021/12/26 02:56:10;;;;;;;1999.90;999.90;;;;;;;;;;4979394;28;20048;-78
2021/12/26 02:58:35;;;;;;;1999.90;999.90;;;;;;;;;;4996093;28;20021;-78
2021/12/26 03:01:12;;;;;;;1999.90;999.90;;;;;;;;;;4995660;28;20034;-78
2021/12/26 03:03:38;;;;;;;1999.90;999.90;;;;;;;;;;4995538;28;20038;-77
2021/12/26 03:06:08;;;;;;;1999.90;999.90;;;;;;;;;;4994284;28;20042;-78
2021/12/26 03:08:33;;;;;;;1999.90;999.90;;;;;;;;;;4996014;28;20037;-78
2021/12/26 03:10:59;;;;;;;1999.90;999.90;;;;;;;;;;4979225;28;20088;-78
2021/12/26 03:13:27;;;;;;;1999.90;999.90;;;;;;;;;;4995876;28;20073;-78
2021/12/26 03:15:52;;;;;;;1570.10;761.55;;;;;;;;;;4978902;28;20029;-78
2021/12/26 03:18:18;;;;;;;1999.90;999.90;;;;;;;;;;4995297;28;20092;-78
2021/12/26 03:20:45;;;;;;;1999.90;999.90;;;;;;;;;;4979591;28;20029;-78
2021/12/26 03:23:12;;;;;;;1999.90;999.90;;;;;;;;;;4962990;28;20065;-78
2021/12/26 03:25:38;;;;;;;1999.90;999.90;;;;;;;;;;4979056;28;20503;-77
2021/12/26 03:28:05;;;;;;;1999.90;999.90;;;;;;;;;;4995432;28;20044;-78
2021/12/26 03:30:31;;;;;;;1999.90;999.90;;;;;;;;;;4979392;28;20034;-78
2021/12/26 03:32:57;;;;;;;1999.90;999.90;;;;;;;;;;4995258;28;20040;-78
2021/12/26 03:35:24;;;;;;;1999.90;999.90;;;;;;;;;;4991862;28;20033;-78
2021/12/26 03:37:50;;;;;;;1999.90;999.90;;;;;;;;;;4975924;28;20030;-78
2021/12/26 03:40:15;;;;;;;1999.90;999.90;;;;;;;;;;4975904;28;20041;-78
2021/12/26 03:42:40;;;;;;;1999.90;999.90;;;;;;;;;;4975488;28;20100;-78
2021/12/26 03:45:07;;;;;;;1999.90;999.90;;;;;;;;;;4959611;28;20061;-78
2021/12/26 03:47:34;;;;;;;1999.90;999.90;;;;;;;;;;4975352;28;20042;-78
2021/12/26 03:49:59;;;;;;;1999.90;999.90;;;;;;;;;;4975865;28;20037;-78
2021/12/26 03:52:25;;;;;;;1999.90;999.90;;;;;;;;;;4959028;28;20046;-78
2021/12/26 03:54:51;;;;;;;1999.90;999.90;;;;;;;;;;4975455;28;20046;-78
2021/12/26 03:57:17;;;;;;;1999.90;999.90;;;;;;;;;;4959498;28;20061;-77
2021/12/26 03:59:42;;;;;;;1999.90;999.90;;;;;;;;;;4959190;28;20139;-78
2021/12/26 04:02:08;;;;;;;1999.90;999.90;;;;;;;;;;4980511;28;20034;-78
2021/12/26 04:04:33;;;;;;;1999.90;999.90;;;;;;;;;;4994616;28;20041;-78
2021/12/26 04:06:59;;;;;;;1999.90;999.90;;;;;;;;;;4978483;28;20386;-79
2021/12/26 04:09:24;;;;;;;1999.90;999.90;;;;;;;;;;5010978;28;20026;-77
2021/12/26 04:11:50;;;;;;;1999.90;999.90;;;;;;;;;;4994455;28;20042;-78
2021/12/26 04:14:15;;;;;;;1999.90;999.90;;;;;;;;;;4978534;28;20406;-78
2021/12/26 04:16:41;;;;;;;1999.90;999.90;;;;;;;;;;4977879;28;20040;-78
2021/12/26 04:19:06;;;;;;;1999.90;999.90;;;;;;;;;;4994415;28;20476;-78
2021/12/26 04:21:32;;;;;;;1999.90;999.90;;;;;;;;;;4994378;28;20065;-78
2021/12/26 04:23:58;;;;;;;1999.90;999.90;;;;;;;;;;4978305;28;20439;-78
2021/12/26 04:26:23;;;;;;;1999.90;999.90;;;;;;;;;;4994276;28;20539;-78
2021/12/26 04:28:49;;;;;;;1999.90;999.90;;;;;;;;;;4978333;28;20072;-78
2021/12/26 04:31:15;;;;;;;1999.90;999.90;;;;;;;;;;4977867;28;20065;-77
2021/12/26 04:33:41;;;;;;;1999.90;999.90;;;;;;;;;;4959056;28;20388;-78
2021/12/26 04:36:07;;;;;;;1999.90;999.90;;;;;;;;;;4959086;28;20034;-78
2021/12/26 04:38:32;;;;;;;1999.90;999.90;;;;;;;;;;4974775;28;20097;-78
2021/12/26 04:40:58;;;;;;;1999.90;999.90;;;;;;;;;;4974907;28;20409;-78
2021/12/26 04:43:25;;;;;;;1999.90;999.90;;;;;;;;;;4984191;28;20038;-77
2021/12/26 04:45:50;;;;;;;1999.90;999.90;;;;;;;;;;4975019;28;20034;-78
2021/12/26 04:48:16;;;;;;;1999.90;999.90;;;;;;;;;;4958381;28;20030;-78
2021/12/26 04:50:41;;;;;;;1999.90;999.90;;;;;;;;;;4965524;28;20107;-77
2021/12/26 04:53:07;;;;;;;1999.90;999.90;;;;;;;;;;4977900;28;20543;-78
2021/12/26 04:55:34;;;;;;;1999.90;999.90;;;;;;;;;;4994236;28;20033;-78
2021/12/26 04:57:59;;;;;;;1999.90;999.90;;;;;;;;;;4994220;28;20032;-78
2021/12/26 05:00:28;;;;;;;1999.90;999.90;;;;;;;;;;4977571;28;20038;-78
2021/12/26 05:02:55;;;;;;;1999.90;999.90;;;;;;;;;;4978349;28;20385;-78
2021/12/26 05:05:20;;;;;;;1999.90;999.90;;;;;;;;;;4993953;28;20125;-78
2021/12/26 05:07:46;;;;;;;1999.90;999.90;;;;;;;;;;4978011;28;20472;-78
2021/12/26 05:10:13;;;;;;;1999.90;999.90;;;;;;;;;;4994610;28;20044;-78
2021/12/26 05:12:39;;;;;;;1484.78;568.88;;;;;;;;;;4977717;28;20040;-78
2021/12/26 05:15:06;;;;;;;1999.90;999.90;;;;;;;;;;5010447;28;20064;-78
2021/12/26 05:17:32;;;;;;;1999.90;999.90;;;;;;;;;;4977358;28;20022;-78
2021/12/26 05:19:57;;;;;;;1999.90;999.90;;;;;;;;;;4997866;28;20026;-77
2021/12/26 05:22:23;;;;;;;1999.90;999.90;;;;;;;;;;4997401;28;20041;-78
2021/12/26 05:24:48;;;;;;;1999.90;999.90;;;;;;;;;;4997714;28;20046;-78
2021/12/26 05:27:14;;;;;;;1999.90;999.90;;;;;;;;;;4997621;28;20435;-78
2021/12/26 05:29:40;;;;;;;1999.90;999.90;;;;;;;;;;4997784;28;20047;-78
2021/12/26 05:32:06;;;;;;;1999.90;999.90;;;;;;;;;;4981597;28;20104;-78
2021/12/26 05:34:31;;;;;;;1999.90;999.90;;;;;;;;;;4962064;28;20030;-78
2021/12/26 05:36:57;;;;;;;1999.90;999.90;;;;;;;;;;4961736;28;20053;-78
2021/12/26 05:39:22;;;;;;;1999.90;999.90;;;;;;;;;;4978247;28;20038;-77
2021/12/26 05:41:48;;;;;;;1999.90;999.90;;;;;;;;;;4977718;28;20077;-78
2021/12/26 05:44:13;;;;;;;1999.90;999.90;;;;;;;;;;4977455;28;20104;-78
2021/12/26 05:46:38;;;;;;;1999.90;999.90;;;;;;;;;;4977720;28;20366;-78
2021/12/26 05:49:04;;;;;;;1999.90;999.90;;;;;;;;;;4978018;28;20551;-78
2021/12/26 05:51:29;;;;;;;1999.90;999.90;;;;;;;;;;4977861;28;20141;-78
2021/12/26 05:53:55;;;;;;;1999.90;999.90;;;;;;;;;;5013694;28;20453;-78
2021/12/26 05:56:20;;;;;;;1999.90;999.90;;;;;;;;;;4997306;28;20038;-78
2021/12/26 05:58:46;;;;;;;1999.90;999.90;;;;;;;;;;5013184;28;20052;-78
2021/12/26 06:01:11;;;;;;;1999.90;999.90;;;;;;;;;;4996979;28;20030;-78
2021/12/26 06:03:37;;;;;;;1999.90;999.90;;;;;;;;;;4993580;28;20046;-78
2021/12/26 06:06:03;;;;;;;1999.90;999.90;;;;;;;;;;4980913;28;20025;-78
2021/12/26 06:08:28;;;;;;;1999.90;999.90;;;;;;;;;;5013186;28;20044;-78
2021/12/26 06:10:54;;;;;;;1999.90;999.90;;;;;;;;;;4996919;28;20030;-77
2021/12/26 06:13:19;;;;;;;1999.90;999.90;;;;;;;;;;4980166;28;20042;-78
2021/12/26 06:15:45;;;;;;;1999.90;999.90;;;;;;;;;;4996239;28;20033;-78
2021/12/26 06:18:10;;;;;;;1999.90;999.90;;;;;;;;;;4996695;28;20395;-78
2021/12/26 06:20:36;;;;;;;1999.90;999.90;;;;;;;;;;4996760;28;20391;-78
2021/12/26 06:23:01;;;;;;;1999.90;999.90;;;;;;;;;;4980094;28;20040;-78
2021/12/26 06:25:27;;;;;;;1999.90;999.90;;;;;;;;;;4996342;28;20044;-78
2021/12/26 06:27:52;;;;;;;1999.90;999.90;;;;;;;;;;4996117;28;20030;-78
2021/12/26 06:30:18;;;;;;;1999.90;999.90;;;;;;;;;;4996428;28;20132;-78
2021/12/26 06:32:43;;;;;;;1999.90;999.90;;;;;;;;;;5013013;28;20045;-78
2021/12/26 06:35:09;;;;;;;1999.90;999.90;;;;;;;;;;4977264;28;20022;-78
2021/12/26 06:37:35;;;;;;;1999.90;999.90;;;;;;;;;;4979795;28;20225;-78
2021/12/26 06:40:00;;;;;;;1999.90;999.90;;;;;;;;;;4992558;28;20089;-78
2021/12/26 06:42:28;;;;;;;1999.90;999.90;;;;;;;;;;4981391;28;20033;-78
2021/12/26 06:44:53;;;;;;;1999.90;999.90;;;;;;;;;;4996559;28;20030;-78
2021/12/26 06:47:19;;;;;;;1999.90;999.90;;;;;;;;;;4995401;28;20096;-78
2021/12/26 06:49:44;;;;;;;1999.90;999.90;;;;;;;;;;4979900;28;20026;-78
2021/12/26 06:52:10;;;;;;;1999.90;999.90;;;;;;;;;;4979462;28;20049;-78
2021/12/26 06:54:36;;;;;;;1999.90;999.90;;;;;;;;;;4980249;28;20034;-78
2021/12/26 06:57:03;;;;;;;1999.90;999.90;;;;;;;;;;4979783;28;20038;-78
2021/12/26 06:59:28;;;;;;;1999.90;999.90;;;;;;;;;;4963790;28;20017;-78
2021/12/26 07:01:54;;;;;;;1999.90;999.90;;;;;;;;;;4995261;28;20480;-78
2021/12/26 07:04:19;;;;;;;1999.90;999.90;;;;;;;;;;5012403;28;20030;-78
2021/12/26 07:06:44;;;;;;;1999.90;999.90;;;;;;;;;;4995703;28;20063;-77
2021/12/26 07:09:10;;;;;;;1999.90;999.90;;;;;;;;;;4995702;28;20400;-78
2021/12/26 07:11:35;;;;;;;1999.90;999.90;;;;;;;;;;4994958;28;20443;-78
2021/12/26 07:14:01;;;;;;;1999.90;999.90;;;;;;;;;;5011990;28;20436;-78
2021/12/26 07:16:27;;;;;;;1999.90;999.90;;;;;;;;;;4978815;28;20377;-78
2021/12/26 07:18:52;;;;;;;1999.90;999.90;;;;;;;;;;4979673;28;20030;-78
2021/12/26 07:21:18;;;;;;;1999.90;999.90;;;;;;;;;;4993890;28;20413;-78
2021/12/26 07:23:43;;;;;;;1999.90;999.90;;;;;;;;;;4994433;28;20034;-78
2021/12/26 07:26:09;;;;;;;1999.90;999.90;;;;;;;;;;4974819;28;20503;-78
2021/12/26 07:28:34;;;;;;;1999.90;999.90;;;;;;;;;;4978448;28;20388;-77
2021/12/26 07:31:00;;;;;;;1999.90;999.90;;;;;;;;;;4994363;28;20093;-78
2021/12/26 07:33:25;;;;;;;1999.90;999.90;;;;;;;;;;4961472;28;20066;-78
2021/12/26 07:35:51;;;;;;;1999.90;999.90;;;;;;;;;;4978138;28;20034;-78
2021/12/26 07:38:18;;;;;;;1999.90;999.90;;;;;;;;;;4978494;28;20026;-79
2021/12/26 07:40:45;;;;;;;1999.90;999.90;;;;;;;;;;4977988;28;20433;-78
2021/12/26 07:43:12;;;;;;;1999.90;999.90;;;;;;;;;;4978491;28;20034;-79
2021/12/26 07:45:40;;;;;;;1999.90;999.90;;;;;;;;;;4977236;28;20081;-78
2021/12/26 07:48:06;;;;;;;1999.90;999.90;;;;;;;;;;4958800;28;20026;-78
2021/12/26 07:50:31;;;;;;;1999.90;999.90;;;;;;;;;;5010535;28;20057;-79
2021/12/26 07:53:04;;;;;;;1999.90;999.90;;;;;;;;;;4993604;28;20037;-78
2021/12/26 07:55:29;;;;;;;;;;;;;;;;;;4994436;28;20128;-77
2021/12/26 07:57:55;;;;;;;1999.90;999.90;;;;;;;;;;4993178;28;20052;-77
2021/12/26 08:00:20;;;;;;;1999.90;999.90;;;;;;;;;;4989299;28;20049;-78
2021/12/26 08:02:46;;;;;;;1999.90;999.90;;;;;;;;;;4974029;28;20038;-78
2021/12/26 08:05:11;;;;;;;1999.90;999.90;;;;;;;;;;4974547;28;20042;-78
2021/12/26 08:07:37;;;;;;;1999.90;999.90;;;;;;;;;;4974391;28;20041;-78
2021/12/26 08:10:03;;;;;;;1999.90;999.90;;;;;;;;;;4974192;28;20038;-78
2021/12/26 08:12:32;;;;;;;1999.90;999.90;;;;;;;;;;4992317;28;20033;-83
2021/12/26 08:14:59;;;;;;;1999.90;999.90;;;;;;;;;;4971769;28;20429;-79
2021/12/26 08:17:30;;;;;;;1999.90;999.90;;;;;;;;;;4958167;28;20109;-81
2021/12/26 08:19:57;;;;;;;1999.90;999.90;;;;;;;;;;4971154;28;20034;-79
2021/12/26 08:22:22;;;;;;;1999.90;999.90;;;;;;;;;;4872171;28;2818544;-79
2021/12/26 08:24:48;;;;;;;1999.90;999.90;;;;;;;;;;4989633;28;20030;-77
2021/12/26 08:27:14;;;;;;;1999.90;999.90;;;;;;;;;;4975751;28;20041;-79
2021/12/26 08:29:40;;;;;;;1999.90;999.90;;;;;;;;;;4960041;28;20084;-79
2021/12/26 08:32:10;;;;;;;1999.90;999.90;;;;;;;;;;4975832;28;20037;-80
2021/12/26 08:34:36;;;;;;;1999.90;999.90;;;;;;;;;;4991180;28;20499;-80
2021/12/26 08:37:02;;;;;;;1999.90;999.90;;;;;;;;;;4958445;28;20121;-80
2021/12/26 08:39:29;;;;;;;1999.90;999.90;;;;;;;;;;4978633;28;20026;-79
2021/12/26 08:41:54;;;;;;;1999.90;999.90;;;;;;;;;;4994449;28;20049;-89
2021/12/26 08:44:21;;;;;;;1999.90;999.90;;;;;;;;;;4963098;28;20030;-84
2021/12/26 08:46:46;;;;;;;1999.90;999.90;;;;;;;;;;4991331;28;20033;-87
2021/12/26 08:49:12;;;;;;;1999.90;999.90;;;;;;;;;;4946824;28;20113;-83
2021/12/26 08:51:38;;;;;;;1999.90;999.90;;;;;;;;;;4994030;28;20065;-85
2021/12/26 08:54:04;;;;;;;1999.90;999.90;;;;;;;;;;4964172;28;20500;-85
2021/12/26 08:56:31;;;;;;;1602.05;773.25;;;;;;;;;;4998446;28;20036;-86
2021/12/26 08:58:57;;;;;;;1999.90;999.90;;;;;;;;;;4982459;28;20080;-83
2021/12/26 09:01:22;;;;;;;1999.90;999.90;;;;;;;;;;4980485;28;20057;-83
2021/12/26 09:03:48;;;;;;;1999.90;999.90;;;;;;;;;;4998242;28;20395;-84
2021/12/26 09:06:14;;;;;;;1999.90;999.90;;;;;;;;;;4980422;28;20042;-85
2021/12/26 09:08:40;;;;;;;1999.90;999.90;;;;;;;;;;4998122;28;20026;-84
2021/12/26 09:11:05;;;;;;;1999.90;999.90;;;;;;;;;;4998084;28;20044;-84
2021/12/26 09:13:33;;;;;;;1999.90;999.90;;;;;;;;;;4981686;28;20022;-83
2021/12/26 09:15:59;;;;;;;1139.10;511.27;;;;;;;;;;4981899;28;20432;-84
2021/12/26 09:18:25;;;;;;;1195.60;517.85;;;;;;;;;;4997866;28;20021;-84
2021/12/26 09:20:50;;;;;;;1999.90;999.90;;;;;;;;;;4992930;28;20114;-84
2021/12/26 09:23:15;;;;;;;1999.90;999.90;;;;;;;;;;4960694;28;20062;-84
2021/12/26 09:25:41;;;;;;;1999.90;999.90;;;;;;;;;;4963406;28;20038;-84
2021/12/26 09:28:06;;;;;;;1999.90;999.90;;;;;;;;;;4981800;28;20030;-84
2021/12/26 09:30:33;;;;;;;1999.90;999.90;;;;;;;;;;4981377;28;20446;-84
2021/12/26 09:32:58;;;;;;;1999.90;999.90;;;;;;;;;;4981136;28;20038;-83
2021/12/26 09:35:25;;;;;;;1578.78;760.15;;;;;;;;;;4980526;28;20030;-84
2021/12/26 09:37:50;;;;;;;1553.57;756.88;;;;;;;;;;4979997;28;20045;-83
2021/12/26 09:40:17;;;;;;;1175.03;514.97;;;;;;;;;;4965289;28;20038;-83
2021/12/26 09:42:43;;;;;;;1999.90;999.90;;;;;;;;;;4994233;28;20049;-84
2021/12/26 09:45:09;;;;;;;1999.90;999.90;;;;;;;;;;4978317;28;20484;-84
2021/12/26 09:47:36;;;;;;;1999.90;999.90;;;;;;;;;;4977766;28;20117;-84
2021/12/26 09:50:02;;;;;;;1999.90;999.90;;;;;;;;;;4964224;28;20030;-83
2021/12/26 09:52:27;;;;;;;1999.90;999.90;;;;;;;;;;4958858;28;20022;-83
2021/12/26 09:54:53;;;;;;;1999.90;999.90;;;;;;;;;;4977601;28;20047;-84
2021/12/26 09:57:18;;;;;;;1999.90;999.90;;;;;;;;;;4964535;28;20396;-84
2021/12/26 09:59:47;;;;;;;1999.90;999.90;;;;;;;;;;4977436;28;20026;-84
2021/12/26 10:02:14;;;;;;;1999.90;999.90;;;;;;;;;;4981018;28;20113;-84
2021/12/26 10:04:40;;;;;;;1999.90;999.90;;;;;;;;;;4980291;28;20038;-83
2021/12/26 10:07:09;;;;;;;1999.90;999.90;;;;;;;;;;4980443;28;20109;-84
2021/12/26 10:09:39;;;;;;;1999.90;999.90;;;;;;;;;;4980996;28;20034;-84
2021/12/26 10:12:05;;;;;;;1999.90;999.90;;;;;;;;;;4996557;28;20547;-83
2021/12/26 10:14:33;;;;;;;1999.90;999.90;;;;;;;;;;4980682;28;20400;-82
2021/12/26 10:17:03;;;;;;;1999.90;999.90;;;;;;;;;;4996684;28;20030;-83
2021/12/26 10:19:36;;;;;;;1999.90;999.90;;;;;;;;;;4979533;28;20026;-83
2021/12/26 10:22:02;;;;;;;1999.90;999.90;;;;;;;;;;4971537;28;20046;-83
2021/12/26 10:24:29;;;;;;;1588.25;764.70;;;;;;;;;;4963114;28;20030;-83
2021/12/26 10:26:57;;;;;;;1999.90;999.90;;;;;;;;;;4979358;28;20033;-83
2021/12/26 10:29:27;;;;;;;1999.90;999.90;;;;;;;;;;4978355;28;20061;-83
2021/12/26 10:31:55;;;;;;;1999.90;999.90;;;;;;;;;;4974377;28;20105;-83
2021/12/26 10:34:38;;;;;;;1999.90;999.90;;;;;;;;;;5001648;28;20508;-83
2021/12/26 10:37:07;;;;;;;1999.90;999.90;;;;;;;;;;4976644;28;20037;-83
2021/12/26 10:39:38;;;;;;;1999.90;999.90;;;;;;;;;;4981222;28;20022;-83
2021/12/26 10:42:06;;;;;;;1999.90;999.90;;;;;;;;;;4963966;28;20030;-83
2021/12/26 10:44:35;;;;;;;1999.90;999.90;;;;;;;;;;4962426;28;20038;-82
2021/12/26 10:47:06;;;;;;;1166.32;516.80;;;;;;;;;;4951930;28;20025;-83
2021/12/26 10:49:36;;;;;;;1999.90;999.90;;;;;;;;;;4976802;28;20034;-83
2021/12/26 10:52:05;;;;;;;1999.90;999.90;;;;;;;;;;4979626;28;20041;-84
2021/12/26 10:54:31;;;;;;;1999.90;999.90;;;;;;;;;;4975026;28;20066;-83
2021/12/26 10:57:10;;;;;;;1999.90;999.90;;;;;;;;;;4952968;28;20049;-83
2021/12/26 10:59:37;;;;;;;1560.28;754.20;;;;;;;;;;4992750;28;20097;-84
2021/12/26 11:02:02;;;;;;;1999.90;999.90;;;;;;;;;;4966805;28;20380;-84
2021/12/26 11:04:28;;;;;;;1999.90;999.90;;;;;;;;;;4995411;28;20057;-83
2021/12/26 11:07:01;;;;;;;1999.90;999.90;;;;;;;;;;4976934;28;20022;-83
2021/12/26 11:09:27;;;;;;;1999.90;999.90;;;;;;;;;;4945147;28;20031;-83
2021/12/26 11:12:06;;;;;;;1999.90;999.90;;;;;;;;;;4960554;28;20030;-83
2021/12/26 11:14:32;;;;;;;1999.90;999.90;;;;;;;;;;4955372;28;20027;-87
2021/12/26 11:16:59;;;;;;;1060.53;505.00;;;;;;;;;;4953572;28;20495;-88
2021/12/26 11:19:44;;;;;;;1999.90;999.90;;;;;;;;;;4948686;28;20115;-87
2021/12/26 11:22:10;;;;;;;1999.90;999.90;;;;;;;;;;4976946;28;20026;-87
2021/12/26 11:24:37;;;;;;;1999.90;999.90;;;;;;;;;;4960583;28;20038;-87
2021/12/26 11:27:03;;;;;;;1999.90;999.90;;;;;;;;;;4979781;28;20079;-88
2021/12/26 11:29:32;;;;;;;1999.90;999.90;;;;;;;;;;4980600;28;20037;-90
2021/12/26 11:31:57;;;;;;;1999.90;999.90;;;;;;;;;;4980308;28;20108;-89
2021/12/26 11:34:25;;;;;;;1999.90;999.90;;;;;;;;;;4996135;28;20091;-89
2021/12/26 11:36:52;;;;;;;1999.90;999.90;;;;;;;;;;4980629;28;20033;-92
2021/12/26 11:39:19;;;;;;;1999.90;999.90;;;;;;;;;;4980825;28;20089;-90
2021/12/26 11:41:58;;;;;;;1999.90;999.90;;;;;;;;;;4963627;28;20421;-90
2021/12/26 11:44:51;;;;;;;1999.90;999.90;;;;;;;;;;4977437;28;20038;-89
2021/12/26 11:47:39;;;;;;;;;;;;;;;;;;4977954;28;20060;-86
2021/12/26 11:50:37;;;;;;;1530.45;753.45;;;;;;;;;;4995674;28;20275;-88
2021/12/26 11:53:43;;;;;;;1999.90;999.90;;;;;;;;;;4995939;28;20026;-89
2021/12/26 11:56:47;;;;;;;1999.90;999.90;;;;;;;;;;4979631;28;20037;-87
2021/12/26 11:59:20;;;;;;;1999.90;999.90;;;;;;;;;;4976348;28;20488;-88
2021/12/26 12:01:47;;;;;;;1999.90;999.90;;;;;;;;;;4993825;28;20031;-86
2021/12/26 12:04:23;;;;;;;1533.20;752.28;;;;;;;;;;4963137;28;20030;-87
2021/12/26 12:06:55;;;;;;;1999.90;999.90;;;;;;;;;;4964603;28;20080;-93
2021/12/26 12:09:28;;;;;;;1999.90;999.90;;;;;;;;;;4963589;28;20048;-83
2021/12/26 12:12:06;;;;;;;1999.90;999.90;;;;;;;;;;4978667;28;20026;-80
2021/12/26 12:14:43;;;;;;;1999.90;999.90;;;;;;;;;;4994616;28;20037;-80
2021/12/26 12:17:16;;;;;;;1999.90;999.90;;;;;;;;;;5009744;28;20022;-80
2021/12/26 12:20:16;;;;;;;1999.90;999.90;;;;;;;;;;4978758;28;20034;-80
2021/12/26 12:23:09;;;;;;;1999.90;999.90;;;;;;;;;;5012014;28;20479;-79
2021/12/26 12:25:35;;;;;;;1999.90;999.90;;;;;;;;;;5008064;28;20113;-79
2021/12/26 12:28:26;;;;;;;1999.90;999.90;;;;;;;;;;4992737;28;20034;-79
2021/12/26 12:31:08;;;;;;;1999.90;999.90;;;;;;;;;;4993782;28;20048;-79
2021/12/26 12:33:34;;;;;;;1999.90;999.90;;;;;;;;;;4995828;28;20416;-79
2021/12/26 12:36:04;;;;;;;1999.90;999.90;;;;;;;;;;4947331;28;20030;-79
2021/12/26 12:38:37;;;;;;;1999.90;999.90;;;;;;;;;;5003666;28;20044;-79
2021/12/26 12:41:03;;;;;;;1999.90;999.90;;;;;;;;;;4979088;28;20109;-79
2021/12/26 12:43:30;;;;;;;1188.32;525.53;;;;;;;;;;4994625;28;20033;-79
2021/12/26 12:45:56;;;;;;;1999.90;999.90;;;;;;;;;;4977881;28;20582;-80
2021/12/26 12:48:23;;;;;;;1999.90;999.90;;;;;;;;;;4993721;28;20038;-79
2021/12/26 12:50:49;;;;;;;1650.45;769.00;;;;;;;;;;4994286;28;20508;-80
2021/12/26 12:53:43;;;;;;;1999.90;999.90;;;;;;;;;;4978396;28;20048;-80
2021/12/26 12:56:11;;;;;;;1999.90;999.90;;;;;;;;;;4977871;28;20057;-79
2021/12/26 12:58:36;;;;;;;1999.90;999.90;;;;;;;;;;4974190;28;20034;-80
2021/12/26 13:01:05;;;;;;;1999.90;999.90;;;;;;;;;;4974727;28;20385;-80
2021/12/26 13:03:34;;;;;;;1999.90;999.90;;;;;;;;;;4990419;28;20065;-80
2021/12/26 13:06:08;;;;;;;1999.90;999.90;;;;;;;;;;4978991;28;20080;-79
2021/12/26 13:08:34;;;;;;;1999.90;999.90;;;;;;;;;;4993990;28;20115;-80
2021/12/26 13:11:01;;;;;;;1999.90;999.90;;;;;;;;;;4978195;28;20030;-80
2021/12/26 13:13:27;;;;;;;1999.90;999.90;;;;;;;;;;4978416;28;20545;-80
2021/12/26 13:15:52;;;;;;;1999.90;999.90;;;;;;;;;;4961442;28;20109;-80
2021/12/26 13:18:18;;;;;;;1571.90;760.95;;;;;;;;;;4995824;28;20073;-80
2021/12/26 13:20:48;;;;;;;1999.90;999.90;;;;;;;;;;4970594;28;20034;-80
2021/12/26 13:23:13;;;;;;;1999.90;999.90;;;;;;;;;;4976309;28;20077;-80
2021/12/26 13:25:41;;;;;;;1999.90;999.90;;;;;;;;;;4975895;28;20042;-80
2021/12/26 13:28:15;;;;;;;1999.90;999.90;;;;;;;;;;4959696;28;20057;-80
2021/12/26 13:30:42;;;;;;;1999.90;999.90;;;;;;;;;;5009002;28;20559;-80
2021/12/26 13:33:17;;;;;;;1999.90;999.90;;;;;;;;;;4978265;28;20030;-80
2021/12/26 13:35:43;;;;;;;1999.90;999.90;;;;;;;;;;4993902;28;20053;-80
2021/12/26 13:38:08;;;;;;;1999.90;999.90;;;;;;;;;;4993611;28;20054;-80
2021/12/26 13:40:35;;;;;;;1999.90;999.90;;;;;;;;;;4996376;28;20041;-80
2021/12/26 13:43:01;;;;;;;1132.97;514.88;;;;;;;;;;4980872;28;20428;-81
2021/12/26 13:45:35;;;;;;;1999.90;999.90;;;;;;;;;;5013396;28;20034;-81
2021/12/26 13:48:00;;;;;;;1999.90;999.90;;;;;;;;;;4980661;28;20041;-80
2021/12/26 13:50:26;;;;;;;1999.90;999.90;;;;;;;;;;4977442;28;20426;-80
2021/12/26 13:53:05;;;;;;;1999.90;999.90;;;;;;;;;;4977424;28;20038;-80
2021/12/26 13:55:35;;;;;;;1999.90;999.90;;;;;;;;;;4961135;28;20614;-80